sensor_id;sensor_type;location;lat;lon;timestamp;pressure;altitude;pressure_sealevel;temperature;humidity
37238;BME280;23129;49.662;8.448;2022-11-15T00:02:42;100395.09;;;11.61;100.00
37238;BME280;23129;49.662;8.448;2022-11-15T00:05:29;100395.19;;;11.58;100.00
37238;BME280;23129;49.662;8.448;2022-11-15T00:08:17;100393.44;;;11.57;100.00
37238;BME280;23129;49.662;8.448;2022-11-15T00:11:05;100398.81;;;11.54;100.00
37238;BME280;23129;49.662;8.448;2022-11-15T00:13:55;100400.59;;;11.53;100.00
37238;BME280;23129;49.662;8.448;2022-11-15T00:16:42;100391.94;;;11.50;100.00
37238;BME280;23129;49.662;8.448;2022-11-15T00:19:29;100391.94;;;11.50;100.00
37238;BME280;23129;49.662;8.448;2022-11-15T00:22:16;100387.63;;;11.49;100.00
37238;BME280;23129;49.662;8.448;2022-11-15T00:25:05;100388.50;;;11.48;100.00
37238;BME280;23129;49.662;8.448;2022-11-15T00:27:55;100383.25;;;11.48;100.00
37238;BME280;23129;49.662;8.448;2022-11-15T00:30:43;100386.69;;;11.50;100.00
37238;BME280;23129;49.662;8.448;2022-11-15T00:33:31;100388.41;;;11.51;100.00
37238;BME280;23129;49.662;8.448;2022-11-15T00:36:18;100376.19;;;11.50;100.00
37238;BME280;23129;49.662;8.448;2022-11-15T00:39:06;100379.72;;;11.49;100.00
37238;BME280;23129;49.662;8.448;2022-11-15T00:41:54;100379.72;;;11.49;100.00
37238;BME280;23129;49.662;8.448;2022-11-15T00:44:40;100388.50;;;11.48;100.00
37238;BME280;23129;49.662;8.448;2022-11-15T00:47:27;100373.59;;;11.48;100.00
37238;BME280;23129;49.662;8.448;2022-11-15T00:50:15;100372.75;;;11.48;100.00
37238;BME280;23129;49.662;8.448;2022-11-15T00:53:02;100371.03;;;11.47;100.00
37238;BME280;23129;49.662;8.448;2022-11-15T00:55:49;100373.66;;;11.47;100.00
37238;BME280;23129;49.662;8.448;2022-11-15T00:58:37;100358.78;;;11.46;100.00
37238;BME280;23129;49.662;8.448;2022-11-15T01:01:24;100354.34;;;11.48;100.00
37238;BME280;23129;49.662;8.448;2022-11-15T01:04:11;100358.72;;;11.49;100.00
37238;BME280;23129;49.662;8.448;2022-11-15T01:06:58;100355.19;;;11.50;100.00
37238;BME280;23129;49.662;8.448;2022-11-15T01:09:45;100353.47;;;11.49;100.00
37238;BME280;23129;49.662;8.448;2022-11-15T01:12:32;100355.28;;;11.47;100.00
37238;BME280;23129;49.662;8.448;2022-11-15T01:15:20;100354.47;;;11.45;100.00
37238;BME280;23129;49.662;8.448;2022-11-15T01:18:08;100351.00;;;11.42;100.00
37238;BME280;23129;49.662;8.448;2022-11-15T01:20:55;100356.34;;;11.41;100.00
37238;BME280;23129;49.662;8.448;2022-11-15T01:23:42;100343.25;;;11.39;100.00
37238;BME280;23129;49.662;8.448;2022-11-15T01:26:30;100349.38;;;11.40;100.00
37238;BME280;23129;49.662;8.448;2022-11-15T01:29:17;100349.31;;;11.41;100.00
37238;BME280;23129;49.662;8.448;2022-11-15T01:32:05;100342.28;;;11.42;100.00
37238;BME280;23129;49.662;8.448;2022-11-15T01:34:53;100350.97;;;11.44;100.00
37238;BME280;23129;49.662;8.448;2022-11-15T01:37:40;100350.03;;;11.47;100.00
37238;BME280;23129;49.662;8.448;2022-11-15T01:40:27;100339.41;;;11.50;100.00
37238;BME280;23129;49.662;8.448;2022-11-15T01:43:23;100345.38;;;11.55;100.00
37238;BME280;23129;49.662;8.448;2022-11-15T01:46:25;100350.56;;;11.56;100.00
37238;BME280;23129;49.662;8.448;2022-11-15T01:49:17;100347.03;;;11.57;100.00
37238;BME280;23129;49.662;8.448;2022-11-15T01:52:09;100334.78;;;11.58;100.00
37238;BME280;23129;49.662;8.448;2022-11-15T01:55:05;100336.47;;;11.59;100.00
37238;BME280;23129;49.662;8.448;2022-11-15T01:57:58;100328.59;;;11.59;100.00
37238;BME280;23129;49.662;8.448;2022-11-15T02:00:46;100326.78;;;11.61;100.00
37238;BME280;23129;49.662;8.448;2022-11-15T02:03:39;100329.44;;;11.59;100.00
37238;BME280;23129;49.662;8.448;2022-11-15T02:06:29;100321.63;;;11.58;100.00
37238;BME280;23129;49.662;8.448;2022-11-15T02:09:17;100316.41;;;11.56;100.00
37238;BME280;23129;49.662;8.448;2022-11-15T02:12:05;100314.75;;;11.54;100.00
37238;BME280;23129;49.662;8.448;2022-11-15T02:14:55;100315.78;;;11.50;100.00
37238;BME280;23129;49.662;8.448;2022-11-15T02:18:06;100304.56;;;11.45;100.00
37238;BME280;23129;49.662;8.448;2022-11-15T02:21:10;100304.66;;;11.41;100.00
37238;BME280;23129;49.662;8.448;2022-11-15T02:27:59;100297.72;;;11.40;100.00
37238;BME280;23129;49.662;8.448;2022-11-15T02:31:00;100301.13;;;11.42;100.00
37238;BME280;23129;49.662;8.448;2022-11-15T02:33:57;100300.34;;;11.40;100.00
37238;BME280;23129;49.662;8.448;2022-11-15T02:36:57;100303.06;;;11.37;100.00
37238;BME280;23129;49.662;8.448;2022-11-15T02:39:54;100304.03;;;11.35;100.00
37238;BME280;23129;49.662;8.448;2022-11-15T02:42:50;100303.28;;;11.31;100.00
37238;BME280;23129;49.662;8.448;2022-11-15T02:46:03;100287.53;;;11.30;100.00
37238;BME280;23129;49.662;8.448;2022-11-15T02:48:53;100278.06;;;11.26;100.00
37238;BME280;23129;49.662;8.448;2022-11-15T02:51:41;100271.97;;;11.25;100.00
37238;BME280;23129;49.662;8.448;2022-11-15T02:54:30;100264.09;;;11.25;100.00
37238;BME280;23129;49.662;8.448;2022-11-15T02:57:22;100276.28;;;11.26;100.00
37238;BME280;23129;49.662;8.448;2022-11-15T03:00:17;100275.38;;;11.27;100.00
37238;BME280;23129;49.662;8.448;2022-11-15T03:03:34;100277.13;;;11.28;100.00
37238;BME280;23129;49.662;8.448;2022-11-15T03:06:31;100268.22;;;11.32;100.00
37238;BME280;23129;49.662;8.448;2022-11-15T03:09:32;100265.56;;;11.34;100.00
37238;BME280;23129;49.662;8.448;2022-11-15T03:12:27;100268.22;;;11.32;100.00
37238;BME280;23129;49.662;8.448;2022-11-15T03:15:20;100262.22;;;11.29;100.00
37238;BME280;23129;49.662;8.448;2022-11-15T03:18:15;100274.50;;;11.28;100.00
37238;BME280;23129;49.662;8.448;2022-11-15T03:21:07;100269.25;;;11.28;100.00
37238;BME280;23129;49.662;8.448;2022-11-15T03:23:56;100271.91;;;11.27;100.00
37238;BME280;23129;49.662;8.448;2022-11-15T03:26:48;100271.88;;;11.28;100.00
37238;BME280;23129;49.662;8.448;2022-11-15T03:29:41;100270.03;;;11.30;100.00
37238;BME280;23129;49.662;8.448;2022-11-15T03:32:32;100254.16;;;11.33;100.00
37238;BME280;23129;49.662;8.448;2022-11-15T03:35:25;100258.47;;;11.36;99.90
37238;BME280;23129;49.662;8.448;2022-11-15T03:38:19;100257.50;;;11.38;99.57
37238;BME280;23129;49.662;8.448;2022-11-15T03:41:14;100257.50;;;11.38;100.00
37238;BME280;23129;49.662;8.448;2022-11-15T03:44:10;100262.75;;;11.38;100.00
37238;BME280;23129;49.662;8.448;2022-11-15T03:47:06;100254.88;;;11.38;100.00
37238;BME280;23129;49.662;8.448;2022-11-15T03:50:00;100256.53;;;11.41;100.00
37238;BME280;23129;49.662;8.448;2022-11-15T03:52:50;100255.59;;;11.43;99.20
37238;BME280;23129;49.662;8.448;2022-11-15T03:55:37;100255.59;;;11.43;99.12
37238;BME280;23129;49.662;8.448;2022-11-15T03:58:24;100249.41;;;11.45;99.51
37238;BME280;23129;49.662;8.448;2022-11-15T04:01:11;100252.03;;;11.45;99.02
37238;BME280;23129;49.662;8.448;2022-11-15T04:03:58;100253.81;;;11.44;99.87
37238;BME280;23129;49.662;8.448;2022-11-15T04:06:45;100256.38;;;11.46;99.53
37238;BME280;23129;49.662;8.448;2022-11-15T04:09:33;100257.28;;;11.45;99.34
37238;BME280;23129;49.662;8.448;2022-11-15T04:12:43;100257.28;;;11.45;99.57
37238;BME280;23129;49.662;8.448;2022-11-15T04:15:31;100259.81;;;11.48;98.85
37238;BME280;23129;49.662;8.448;2022-11-15T04:18:19;100262.44;;;11.48;98.68
37238;BME280;23129;49.662;8.448;2022-11-15T04:21:06;100270.28;;;11.49;99.52
37238;BME280;23129;49.662;8.448;2022-11-15T04:24:08;100265.03;;;11.49;100.00
37238;BME280;23129;49.662;8.448;2022-11-15T04:27:02;100265.06;;;11.48;100.00
37238;BME280;23129;49.662;8.448;2022-11-15T04:29:49;100270.31;;;11.48;100.00
37238;BME280;23129;49.662;8.448;2022-11-15T04:32:36;100268.59;;;11.47;100.00
37238;BME280;23129;49.662;8.448;2022-11-15T04:35:22;100258.22;;;11.43;100.00
37238;BME280;23129;49.662;8.448;2022-11-15T04:38:11;100266.09;;;11.43;100.00
37238;BME280;23129;49.662;8.448;2022-11-15T04:40:58;100257.47;;;11.40;100.00
37238;BME280;23129;49.662;8.448;2022-11-15T04:43:45;100253.09;;;11.39;100.00
37238;BME280;23129;49.662;8.448;2022-11-15T04:46:33;100254.94;;;11.37;100.00
37238;BME280;23129;49.662;8.448;2022-11-15T04:49:20;100260.31;;;11.34;100.00
37238;BME280;23129;49.662;8.448;2022-11-15T04:52:06;100258.56;;;11.33;100.00
37238;BME280;23129;49.662;8.448;2022-11-15T04:54:53;100259.53;;;11.30;100.00
37238;BME280;23129;49.662;8.448;2022-11-15T04:57:41;100256.13;;;11.28;100.00
37238;BME280;23129;49.662;8.448;2022-11-15T05:00:29;100250.03;;;11.26;100.00
37238;BME280;23129;49.662;8.448;2022-11-15T05:03:16;100237.88;;;11.24;100.00
37238;BME280;23129;49.662;8.448;2022-11-15T05:06:29;100236.16;;;11.23;100.00
37238;BME280;23129;49.662;8.448;2022-11-15T05:09:17;100238.84;;;11.21;100.00
37238;BME280;23129;49.662;8.448;2022-11-15T05:12:04;100227.47;;;11.20;100.00
37238;BME280;23129;49.662;8.448;2022-11-15T05:14:51;100216.13;;;11.20;100.00
37238;BME280;23129;49.662;8.448;2022-11-15T05:17:42;100227.53;;;11.19;100.00
37238;BME280;23129;49.662;8.448;2022-11-15T05:20:31;100221.47;;;11.17;100.00
37238;BME280;23129;49.662;8.448;2022-11-15T05:23:18;100218.03;;;11.15;100.00
37238;BME280;23129;49.662;8.448;2022-11-15T05:26:06;100213.75;;;11.12;100.00
37238;BME280;23129;49.662;8.448;2022-11-15T05:28:56;100211.19;;;11.11;100.00
37238;BME280;23129;49.662;8.448;2022-11-15T05:31:43;100214.75;;;11.10;100.00
37238;BME280;23129;49.662;8.448;2022-11-15T05:34:32;100210.38;;;11.09;100.00
37238;BME280;23129;49.662;8.448;2022-11-15T05:37:19;100207.84;;;11.06;100.00
37238;BME280;23129;49.662;8.448;2022-11-15T05:40:07;100210.53;;;11.04;100.00
37238;BME280;23129;49.662;8.448;2022-11-15T05:42:55;100211.50;;;11.02;100.00
37238;BME280;23129;49.662;8.448;2022-11-15T05:45:42;100227.25;;;11.02;100.00
37238;BME280;23129;49.662;8.448;2022-11-15T05:48:29;100208.06;;;11.00;100.00
37238;BME280;23129;49.662;8.448;2022-11-15T05:51:18;100211.59;;;10.99;100.00
37238;BME280;23129;49.662;8.448;2022-11-15T05:54:06;100214.25;;;10.97;100.00
37238;BME280;23129;49.662;8.448;2022-11-15T05:56:54;100216.94;;;10.95;100.00
37238;BME280;23129;49.662;8.448;2022-11-15T05:59:42;100215.22;;;10.94;100.00
37238;BME280;23129;49.662;8.448;2022-11-15T06:02:29;100214.38;;;10.94;100.00
37238;BME280;23129;49.662;8.448;2022-11-15T06:05:17;100204.81;;;10.91;100.00
37238;BME280;23129;49.662;8.448;2022-11-15T06:08:05;100208.38;;;10.90;100.00
37238;BME280;23129;49.662;8.448;2022-11-15T06:10:52;100209.28;;;10.89;100.00
37238;BME280;23129;49.662;8.448;2022-11-15T06:13:39;100197.16;;;10.85;100.00
37238;BME280;23129;49.662;8.448;2022-11-15T06:16:26;100206.88;;;10.83;100.00
37238;BME280;23129;49.662;8.448;2022-11-15T06:19:14;100219.28;;;10.78;100.00
37238;BME280;23129;49.662;8.448;2022-11-15T06:22:01;100219.47;;;10.72;100.00
37238;BME280;23129;49.662;8.448;2022-11-15T06:24:49;100223.97;;;10.68;100.00
37238;BME280;23129;49.662;8.448;2022-11-15T06:27:36;100223.25;;;10.62;100.00
37238;BME280;23129;49.662;8.448;2022-11-15T06:30:24;100219.84;;;10.60;100.00
37238;BME280;23129;49.662;8.448;2022-11-15T06:33:12;100221.56;;;10.61;100.00
37238;BME280;23129;49.662;8.448;2022-11-15T06:36:01;100218.94;;;10.61;100.00
37238;BME280;23129;49.662;8.448;2022-11-15T06:38:48;100219.84;;;10.60;100.00
37238;BME280;23129;49.662;8.448;2022-11-15T06:41:36;100223.25;;;10.62;100.00
37238;BME280;23129;49.662;8.448;2022-11-15T06:44:23;100222.38;;;10.63;100.00
37238;BME280;23129;49.662;8.448;2022-11-15T06:47:10;100223.16;;;10.65;100.00
37238;BME280;23129;49.662;8.448;2022-11-15T06:49:57;100216.97;;;10.67;100.00
37238;BME280;23129;49.662;8.448;2022-11-15T06:52:45;100212.50;;;10.71;100.00
37238;BME280;23129;49.662;8.448;2022-11-15T06:55:32;100212.41;;;10.74;100.00
37238;BME280;23129;49.662;8.448;2022-11-15T06:58:22;100219.28;;;10.78;100.00
37238;BME280;23129;49.662;8.448;2022-11-15T07:01:11;100219.09;;;10.83;100.00
37238;BME280;23129;49.662;8.448;2022-11-15T07:03:58;100221.69;;;10.84;100.00
37238;BME280;23129;49.662;8.448;2022-11-15T07:06:46;100221.50;;;10.90;100.00
37238;BME280;23129;49.662;8.448;2022-11-15T07:09:34;100216.13;;;10.93;100.00
37238;BME280;23129;49.662;8.448;2022-11-15T07:12:21;100211.59;;;10.99;100.00
37238;BME280;23129;49.662;8.448;2022-11-15T07:15:10;100207.09;;;11.02;100.00
37238;BME280;23129;49.662;8.448;2022-11-15T07:18:00;100203.47;;;11.06;100.00
37238;BME280;23129;49.662;8.448;2022-11-15T07:20:48;100198.88;;;11.13;100.00
37238;BME280;23129;49.662;8.448;2022-11-15T07:23:36;100203.03;;;11.18;100.00
37238;BME280;23129;49.662;8.448;2022-11-15T07:26:23;100202.06;;;11.21;100.00
37238;BME280;23129;49.662;8.448;2022-11-15T07:29:11;100207.31;;;11.21;100.00
37238;BME280;23129;49.662;8.448;2022-11-15T07:31:59;100211.72;;;11.20;100.00
37238;BME280;23129;49.662;8.448;2022-11-15T07:34:45;100210.88;;;11.20;100.00
37238;BME280;23129;49.662;8.448;2022-11-15T07:37:33;100219.56;;;11.22;100.00
37238;BME280;23129;49.662;8.448;2022-11-15T07:40:20;100224.81;;;11.22;100.00
37238;BME280;23129;49.662;8.448;2022-11-15T07:43:08;100228.22;;;11.24;100.00
37238;BME280;23129;49.662;8.448;2022-11-15T07:45:56;100229.97;;;11.25;100.00
37238;BME280;23129;49.662;8.448;2022-11-15T07:48:46;100231.66;;;11.26;100.00
37238;BME280;23129;49.662;8.448;2022-11-15T07:51:33;100232.59;;;11.25;100.00
37238;BME280;23129;49.662;8.448;2022-11-15T07:54:19;100225.66;;;11.23;100.00
37238;BME280;23129;49.662;8.448;2022-11-15T07:57:07;100230.81;;;11.26;100.00
37238;BME280;23129;49.662;8.448;2022-11-15T07:59:56;100229.00;;;11.28;100.00
37238;BME280;23129;49.662;8.448;2022-11-15T08:02:43;100220.94;;;11.32;100.00
37238;BME280;23129;49.662;8.448;2022-11-15T08:05:32;100229.66;;;11.34;100.00
37238;BME280;23129;49.662;8.448;2022-11-15T08:08:20;100235.69;;;11.36;100.00
37238;BME280;23129;49.662;8.448;2022-11-15T08:11:07;100234.78;;;11.37;100.00
37238;BME280;23129;49.662;8.448;2022-11-15T08:13:54;100239.97;;;11.39;100.00
37238;BME280;23129;49.662;8.448;2022-11-15T08:16:41;100235.53;;;11.41;100.00
37238;BME280;23129;49.662;8.448;2022-11-15T08:19:28;100238.91;;;11.45;100.00
37238;BME280;23129;49.662;8.448;2022-11-15T08:22:18;100226.47;;;11.50;100.00
37238;BME280;23129;49.662;8.448;2022-11-15T08:25:06;100234.25;;;11.53;100.00
37238;BME280;23129;49.662;8.448;2022-11-15T08:27:54;100229.75;;;11.56;100.00
37238;BME280;23129;49.662;8.448;2022-11-15T08:30:43;100222.59;;;11.60;100.00
37238;BME280;23129;49.662;8.448;2022-11-15T08:33:32;100214.72;;;11.60;100.00
37238;BME280;23129;49.662;8.448;2022-11-15T08:36:20;100218.28;;;11.59;100.00
37238;BME280;23129;49.662;8.448;2022-11-15T08:39:10;100211.31;;;11.58;100.00
37238;BME280;23129;49.662;8.448;2022-11-15T08:41:58;100206.06;;;11.58;100.00
37238;BME280;23129;49.662;8.448;2022-11-15T08:44:45;100210.31;;;11.60;100.00
37238;BME280;23129;49.662;8.448;2022-11-15T08:47:32;100197.16;;;11.62;100.00
37238;BME280;23129;49.662;8.448;2022-11-15T08:50:19;100205.72;;;11.67;100.00
37238;BME280;23129;49.662;8.448;2022-11-15T08:53:06;100200.34;;;11.70;100.00
37238;BME280;23129;49.662;8.448;2022-11-15T08:55:55;100194.03;;;11.76;100.00
37238;BME280;23129;49.662;8.448;2022-11-15T08:58:42;100202.56;;;11.81;100.00
37238;BME280;23129;49.662;8.448;2022-11-15T09:01:29;100195.41;;;11.86;100.00
37238;BME280;23129;49.662;8.448;2022-11-15T09:04:17;100204.03;;;11.90;100.00
37238;BME280;23129;49.662;8.448;2022-11-15T09:07:04;100203.06;;;11.92;100.00
37238;BME280;23129;49.662;8.448;2022-11-15T09:09:52;100200.41;;;11.94;100.00
37238;BME280;23129;49.662;8.448;2022-11-15T09:12:40;100190.66;;;11.96;100.00
37238;BME280;23129;49.662;8.448;2022-11-15T09:15:27;100191.41;;;11.99;100.00
37238;BME280;23129;49.662;8.448;2022-11-15T09:18:14;100187.81;;;12.02;100.00
37238;BME280;23129;49.662;8.448;2022-11-15T09:21:01;100186.81;;;12.06;100.00
37238;BME280;23129;49.662;8.448;2022-11-15T09:23:50;100190.09;;;12.11;100.00
37238;BME280;23129;49.662;8.448;2022-11-15T09:26:38;100193.41;;;12.16;100.00
37238;BME280;23129;49.662;8.448;2022-11-15T09:29:26;100195.00;;;12.20;100.00
37238;BME280;23129;49.662;8.448;2022-11-15T09:32:13;100195.75;;;12.24;100.00
37238;BME280;23129;49.662;8.448;2022-11-15T09:35:00;100196.47;;;12.27;100.00
37238;BME280;23129;49.662;8.448;2022-11-15T09:37:46;100200.81;;;12.28;100.00
37238;BME280;23129;49.662;8.448;2022-11-15T09:40:40;100201.75;;;12.27;100.00
37238;BME280;23129;49.662;8.448;2022-11-15T09:43:34;100211.44;;;12.25;100.00
37238;BME280;23129;49.662;8.448;2022-11-15T09:46:37;100208.94;;;12.22;100.00
37238;BME280;23129;49.662;8.448;2022-11-15T09:49:14;100191.47;;;12.21;100.00
37238;BME280;23129;49.662;8.448;2022-11-15T09:52:04;100189.72;;;12.20;100.00
37238;BME280;23129;49.662;8.448;2022-11-15T09:54:35;100191.47;;;12.21;100.00
37238;BME280;23129;49.662;8.448;2022-11-15T09:57:31;100188.03;;;12.19;100.00
37238;BME280;23129;49.662;8.448;2022-11-15T10:00:09;100181.78;;;12.22;100.00
37238;BME280;23129;49.662;8.448;2022-11-15T10:03:16;100183.50;;;12.23;100.00
37238;BME280;23129;49.662;8.448;2022-11-15T10:05:47;100184.34;;;12.23;100.00
37238;BME280;23129;49.662;8.448;2022-11-15T10:08:49;100174.84;;;12.21;100.00
37238;BME280;23129;49.662;8.448;2022-11-15T10:11:23;100170.44;;;12.21;100.00
37238;BME280;23129;49.662;8.448;2022-11-15T10:14:11;100166.88;;;12.22;100.00
37238;BME280;23129;49.662;8.448;2022-11-15T10:17:23;100158.97;;;12.22;100.00
37238;BME280;23129;49.662;8.448;2022-11-15T10:20:08;100163.31;;;12.23;100.00
37238;BME280;23129;49.662;8.448;2022-11-15T10:22:41;100162.34;;;12.26;100.00
37238;BME280;23129;49.662;8.448;2022-11-15T10:25:22;100146.53;;;12.27;100.00
37238;BME280;23129;49.662;8.448;2022-11-15T10:27:55;100148.19;;;12.30;100.00
37238;BME280;23129;49.662;8.448;2022-11-15T10:30:32;100147.97;;;12.34;100.00
37238;BME280;23129;49.662;8.448;2022-11-15T10:33:26;100143.41;;;12.40;100.00
37238;BME280;23129;49.662;8.448;2022-11-15T10:36:21;100145.06;;;12.42;100.00
37238;BME280;23129;49.662;8.448;2022-11-15T10:38:57;100134.44;;;12.44;100.00
37238;BME280;23129;49.662;8.448;2022-11-15T10:41:37;100138.81;;;12.45;100.00
37238;BME280;23129;49.662;8.448;2022-11-15T10:44:28;100129.06;;;12.47;100.00
37238;BME280;23129;49.662;8.448;2022-11-15T10:47:24;100135.97;;;12.49;100.00
37238;BME280;23129;49.662;8.448;2022-11-15T10:49:59;100123.56;;;12.53;100.00
37238;BME280;23129;49.662;8.448;2022-11-15T10:52:32;100123.28;;;12.59;100.00
37238;BME280;23129;49.662;8.448;2022-11-15T10:55:21;100113.44;;;12.64;100.00
37238;BME280;23129;49.662;8.448;2022-11-15T10:57:53;100112.28;;;12.71;100.00
37238;BME280;23129;49.662;8.448;2022-11-15T11:00:34;100104.91;;;12.79;100.00
37238;BME280;23129;49.662;8.448;2022-11-15T11:03:22;100098.53;;;12.85;100.00
37238;BME280;23129;49.662;8.448;2022-11-15T11:06:06;100086.88;;;12.91;100.00
37238;BME280;23129;49.662;8.448;2022-11-15T11:08:36;100082.28;;;12.96;100.00
37238;BME280;23129;49.662;8.448;2022-11-15T11:11:06;100083.84;;;13.00;100.00
37238;BME280;23129;49.662;8.448;2022-11-15T11:13:37;100077.50;;;13.04;100.00
37238;BME280;23129;49.662;8.448;2022-11-15T11:16:41;100063.31;;;13.08;100.00
37238;BME280;23129;49.662;8.448;2022-11-15T11:19:43;100061.19;;;13.16;100.00
37238;BME280;23129;49.662;8.448;2022-11-15T11:22:23;100052.03;;;13.25;100.00
37238;BME280;23129;49.662;8.448;2022-11-15T11:25:07;100056.91;;;13.34;100.00
37238;BME280;23129;49.662;8.448;2022-11-15T11:28:04;100052.97;;;13.43;100.00
37238;BME280;23129;49.662;8.448;2022-11-15T11:30:43;100050.66;;;13.56;100.00
37238;BME280;23129;49.662;8.448;2022-11-15T11:33:19;100051.88;;;13.67;100.00
37238;BME280;23129;49.662;8.448;2022-11-15T11:36:05;100048.66;;;13.80;100.00
37238;BME280;23129;49.662;8.448;2022-11-15T11:38:55;100040.94;;;13.94;100.00
37238;BME280;23129;49.662;8.448;2022-11-15T11:41:53;100032.56;;;14.03;100.00
37238;BME280;23129;49.662;8.448;2022-11-15T11:44:36;100036.41;;;14.15;100.00
37238;BME280;23129;49.662;8.448;2022-11-15T11:47:10;100035.06;;;14.24;100.00
37238;BME280;23129;49.662;8.448;2022-11-15T11:49:45;100030.22;;;14.33;100.00
37238;BME280;23129;49.662;8.448;2022-11-15T11:52:18;100025.47;;;14.40;100.00
37238;BME280;23129;49.662;8.448;2022-11-15T11:55:02;100018.19;;;14.45;100.00
37238;BME280;23129;49.662;8.448;2022-11-15T11:57:41;100002.09;;;14.50;100.00
37238;BME280;23129;49.662;8.448;2022-11-15T12:00:18;100007.34;;;14.51;100.00
37238;BME280;23129;49.662;8.448;2022-11-15T12:03:00;100009.16;;;14.49;99.69
37238;BME280;23129;49.662;8.448;2022-11-15T12:05:35;99991.63;;;14.48;99.95
37238;BME280;23129;49.662;8.448;2022-11-15T12:08:29;99995.34;;;14.44;98.43
37238;BME280;23129;49.662;8.448;2022-11-15T12:11:03;99982.31;;;14.41;99.17
37238;BME280;23129;49.662;8.448;2022-11-15T12:13:36;99976.81;;;14.46;98.97
37238;BME280;23129;49.662;8.448;2022-11-15T12:16:13;99974.91;;;14.48;98.65
37238;BME280;23129;49.662;8.448;2022-11-15T12:18:47;99970.25;;;14.54;98.99
37238;BME280;23129;49.662;8.448;2022-11-15T12:21:34;99970.09;;;14.57;98.33
37238;BME280;23129;49.662;8.448;2022-11-15T12:24:11;99964.63;;;14.60;97.36
37238;BME280;23129;49.662;8.448;2022-11-15T12:26:47;99958.50;;;14.60;98.28
37238;BME280;23129;49.662;8.448;2022-11-15T12:29:24;99959.19;;;14.64;97.88
37238;BME280;23129;49.662;8.448;2022-11-15T12:31:56;99957.47;;;14.63;96.11
37238;BME280;23129;49.662;8.448;2022-11-15T12:34:42;99959.53;;;14.57;97.50
37238;BME280;23129;49.662;8.448;2022-11-15T12:40:27;99950.75;;;14.39;97.46
37238;BME280;23129;49.662;8.448;2022-11-15T12:43:01;99942.19;;;14.34;98.46
37238;BME280;23129;49.662;8.448;2022-11-15T12:45:33;99947.56;;;14.33;98.78
37238;BME280;23129;49.662;8.448;2022-11-15T12:48:50;99949.50;;;14.29;99.32
37238;BME280;23129;49.662;8.448;2022-11-15T12:51:22;99944.06;;;14.32;98.33
37238;BME280;23129;49.662;8.448;2022-11-15T12:53:51;99943.22;;;14.32;98.52
37238;BME280;23129;49.662;8.448;2022-11-15T12:56:21;99943.91;;;14.35;98.29
37238;BME280;23129;49.662;8.448;2022-11-15T12:58:56;99946.47;;;14.37;98.63
37238;BME280;23129;49.662;8.448;2022-11-15T13:01:59;99941.09;;;14.38;99.82
37238;BME280;23129;49.662;8.448;2022-11-15T13:04:29;99945.38;;;14.41;99.24
37238;BME280;23129;49.662;8.448;2022-11-15T13:07:01;99930.22;;;14.45;98.05
37238;BME280;23129;49.662;8.448;2022-11-15T13:09:54;99928.63;;;14.42;96.68
37238;BME280;23129;49.662;8.448;2022-11-15T13:12:52;99925.81;;;14.45;97.96
37238;BME280;23129;49.662;8.448;2022-11-15T13:15:51;99930.94;;;14.48;97.67
37238;BME280;23129;49.662;8.448;2022-11-15T13:18:37;99922.00;;;14.51;97.44
37238;BME280;23129;49.662;8.448;2022-11-15T13:21:23;99919.31;;;14.52;97.77
37238;BME280;23129;49.662;8.448;2022-11-15T13:24:13;99914.03;;;14.52;96.40
37238;BME280;23129;49.662;8.448;2022-11-15T13:26:44;99900.03;;;14.50;96.50
37238;BME280;23129;49.662;8.448;2022-11-15T13:29:18;99910.56;;;14.50;95.65
37238;BME280;23129;49.662;8.448;2022-11-15T13:31:47;99893.06;;;14.49;95.79
37238;BME280;23129;49.662;8.448;2022-11-15T13:34:27;99889.63;;;14.47;95.70
37238;BME280;23129;49.662;8.448;2022-11-15T13:37:29;99883.59;;;14.45;96.14
37238;BME280;23129;49.662;8.448;2022-11-15T13:40:20;99877.53;;;14.43;95.26
37238;BME280;23129;49.662;8.448;2022-11-15T13:42:49;99875.69;;;14.45;95.04
37238;BME280;23129;49.662;8.448;2022-11-15T13:45:19;99861.72;;;14.43;95.71
37238;BME280;23129;49.662;8.448;2022-11-15T13:47:57;99865.28;;;14.42;96.06
37238;BME280;23129;49.662;8.448;2022-11-15T13:50:32;99860.19;;;14.39;94.63
37238;BME280;23129;49.662;8.448;2022-11-15T13:53:03;99851.50;;;14.37;95.20
37238;BME280;23129;49.662;8.448;2022-11-15T13:55:32;99847.22;;;14.34;95.04
37238;BME280;23129;49.662;8.448;2022-11-15T13:58:03;99846.53;;;14.31;95.16
37238;BME280;23129;49.662;8.448;2022-11-15T14:00:37;99845.75;;;14.29;95.01
37238;BME280;23129;49.662;8.448;2022-11-15T14:03:15;99842.50;;;14.24;95.51
37238;BME280;23129;49.662;8.448;2022-11-15T14:06:03;99835.69;;;14.20;95.66
37238;BME280;23129;49.662;8.448;2022-11-15T14:08:34;99839.28;;;14.19;96.67
37238;BME280;23129;49.662;8.448;2022-11-15T14:11:09;99837.56;;;14.18;96.78
37238;BME280;23129;49.662;8.448;2022-11-15T14:13:40;99833.22;;;14.16;96.30
37238;BME280;23129;49.662;8.448;2022-11-15T14:16:20;99831.59;;;14.14;96.86
37238;BME280;23129;49.662;8.448;2022-11-15T14:18:51;99821.97;;;14.13;96.89
37238;BME280;23129;49.662;8.448;2022-11-15T14:21:21;99815.88;;;14.12;97.08
37238;BME280;23129;49.662;8.448;2022-11-15T14:23:49;99811.50;;;14.11;97.22
37238;BME280;23129;49.662;8.448;2022-11-15T14:26:30;99807.16;;;14.10;98.05
37238;BME280;23129;49.662;8.448;2022-11-15T14:29:23;99798.47;;;14.08;98.59
37238;BME280;23129;49.662;8.448;2022-11-15T14:31:52;99787.94;;;14.08;98.68